Ankara Etimesgut Air Base, Turkey

5:34 PM EET on February 14, 2016 (GMT +0200)
ETM Ofis Ankara | | Change Station
CLOSE
Current Station
Personal Weather Station
Location: Ankara, ANKARA
Elevation: 2917 ft
Nearby Weather Stations

Elev 2917 ft 39.90 °N, 32.81 °E | Updated 54 seconds ago

Light Rain Showers
Light Showers Rain
54.9 °F
Feels Like 54.9 °F
N
2.7
Wind Variable Wind from West

Today
High -- | Low -- °F
--% Chance of Precip.
Yesterday
High -- | Low -- °F
Precip. -- in
Pressure 30.01 in
Visibility 6.2 miles
Clouds Scattered Clouds 3700 ft
Mostly Cloudy 9000 ft
Dew Point 46 °F
Humidity 71%
Rainfall 0.05 in
Snow Depth Not available.
6:44 AM 5:23 PM
Waxing Crescent, 42% visible
SPECI LTAE 141514Z 16003KT 9999 -SHRA SCT037 BKN090 11/08 Q1016 NOSIG RMK RWY21 00000KT
Pressure 30.01 in
Visibility 6.2 miles
Clouds Scattered Clouds 3700 ft
Mostly Cloudy 9000 ft
Dew Point 46 °F
Humidity 71%
Rainfall 0.05 in
Snow Depth Not available.
6:44 AM 5:23 PM
Waxing Crescent, 42% visible
SPECI LTAE 141514Z 16003KT 9999 -SHRA SCT037 BKN090 11/08 Q1016 NOSIG RMK RWY21 00000KT

10-Day Weather Forecast

Almanac

Astronomy

Feb. 14, 2016 Rise Set
Actual Time
Civil Twilight
Nautical Twilight
Astronomical Twilight
Moon
Length of Visible Light
Length of Day
Tomorrow will be .
, % of the Moon is Illuminated

Today's Extremes

Country Highs Country Lows

Community

WunderPhotos

Upload Photos

1,892,795 photos uploaded!

WunderBlog® & News

Nearby

Air Quality

  Air Quality AQ Index Pollutant
Not available.

Snow Depth

Station Depth Elevation

Earthquake Activity

City Distance Mag. Time & Date
Minimum magnitude displayed is 2.5.

Coastal Water Temperatures

Place Temperature

Stations

Nearby Weather Stations

Station Location Temp. Windchill Dew Point Humidity Wind Precip. Elev Updated Type